Impacts METAR Board
IDs:

KSFO - San Francisco Intl, CA, US

Updated at: 2200 UTC 02 Oct 2022
Potential Impact None Slight Moderate High
Time 02/10Z 02/11Z 02/12Z 02/13Z 02/14Z 02/15Z 02/16Z 02/17Z 02/18Z 02/19Z 02/20Z 02/21Z 02/22Z
Temp62 63 63 63 63 63 64 65 67 69 71 72 72
Dewpt54 53 53 53 53 53 53 53 53 53 52 53 53
Altim29.90 29.90 29.91 29.92 29.94 29.96 29.98 30.00 30.00 30.01 29.99 29.98 29.97
VIS10 10 10 10 10 10 10 10 10 10 10 10 10
CIG23 24 24 24 25 26 26 27 29 -- -- -- --
CoverBKNBKNBKNOVCOVCBKNBKNBKNBKNSCTFEWFEWFEW
FltCatMVFRMVFRMVFRMVFRMVFRMVFRMVFRMVFRMVFRVFRVFRVFRVFR
WX--------------------------
WDir2102502602802202002102101702400310290
WSpd5 6 5 4 6 3 5 7 6 8 3 15 15
WGst-- -- -- -- -- -- -- -- -- -- -- -- --
Raw hourly METARs
KSFO 020956Z 21005KT 10SM FEW009 BKN023 17/12 A2990 RMK AO2 SLP124 T01670122
KSFO 021056Z 25006KT 10SM FEW012 BKN024 17/12 A2990 RMK AO2 SLP125 T01720117
KSFO 021156Z 26005KT 10SM FEW012 BKN024 17/12 A2991 RMK AO2 SLP127 T01720117 10172 20167 53004
KSFO 021256Z 28004KT 10SM OVC024 17/12 A2992 RMK AO2 SLP132 T01720117
KSFO 021356Z 22006KT 10SM FEW023 OVC025 17/12 A2994 RMK AO2 SLP139 T01720117
KSFO 021456Z 20003KT 10SM FEW023 BKN026 17/12 A2996 RMK AO2 SLP146 T01720117 53019
KSFO 021556Z 21005KT 10SM FEW023 BKN026 18/12 A2998 RMK AO2 SLP152 T01780117
KSFO 021656Z 21007KT 10SM FEW023 BKN027 18/12 A3000 RMK AO2 SLP157 T01830117
KSFO 021756Z 17006KT 10SM FEW023 BKN029 19/12 A3000 RMK AO2 SLP160 T01940117 10194 20172 51014
KSFO 021856Z 24008KT 10SM FEW023 SCT032 21/12 A3001 RMK AO2 SLP160 T02060117
KSFO 021956Z COR VRB03KT 10SM FEW032 22/11 A2999 RMK AO2 SLP156 T02170111
KSFO 022056Z 31015KT 10SM FEW032 22/12 A2998 RMK AO2 SLP151 T02220117 58008
KSFO 022156Z 29015KT 10SM FEW027 FEW150 22/12 A2997 RMK AO2 SLP148 T02220117



Page loaded:  22:05 UTC  |   03:05 PM Pacific  |   04:05 PM Mountain  |   05:05 PM Central  |   06:05 PM Eastern

 

ADVISORIES

FORECASTS

FORECASTS

OBSERVATIONS

USER TOOLS

ABOUT US